createdAt,value
2018-09-29T00:02:17.547Z,29.30
2018-09-29T00:04:46.447Z,30.00
2018-09-29T00:07:15.421Z,30.80
2018-09-29T00:09:44.306Z,31.10
2018-09-29T00:12:13.174Z,31.70
2018-09-29T00:14:42.071Z,32.00
2018-09-29T00:17:11.020Z,32.80
2018-09-29T00:19:39.915Z,33.10
2018-09-29T00:22:08.777Z,33.60
2018-09-29T00:24:37.703Z,33.70
2018-09-29T00:27:06.627Z,34.10
2018-09-29T00:29:35.549Z,35.00
2018-09-29T00:32:04.490Z,35.60
2018-09-29T00:34:33.386Z,35.40
2018-09-29T00:37:02.274Z,36.30
2018-09-29T00:39:31.171Z,36.20
2018-09-29T00:42:00.047Z,36.20
2018-09-29T00:44:28.927Z,36.20
2018-09-29T00:46:57.802Z,36.60
2018-09-29T00:49:26.671Z,38.70
2018-09-29T00:51:55.562Z,38.50
2018-09-29T00:54:24.421Z,38.60
2018-09-29T00:56:53.315Z,39.40
2018-09-29T00:59:22.206Z,39.70
2018-09-29T01:01:51.091Z,40.10
2018-09-29T01:04:19.952Z,40.70
2018-09-29T01:06:48.827Z,40.70
2018-09-29T01:09:17.718Z,40.70
2018-09-29T01:11:46.607Z,40.30
2018-09-29T01:14:15.516Z,40.70
2018-09-29T01:16:44.399Z,40.70
2018-09-29T01:19:13.311Z,40.20
2018-09-29T01:21:42.195Z,40.70
2018-09-29T01:24:11.083Z,41.10
2018-09-29T01:26:39.975Z,40.90
2018-09-29T01:29:08.875Z,40.70
2018-09-29T01:31:37.778Z,40.30
2018-09-29T01:34:06.696Z,41.20
2018-09-29T01:36:35.638Z,41.30
2018-09-29T01:39:06.584Z,42.20
2018-09-29T01:41:35.488Z,42.40
2018-09-29T01:44:04.411Z,42.80
2018-09-29T01:46:33.326Z,42.70
2018-09-29T01:49:02.242Z,42.90
2018-09-29T01:51:31.295Z,44.20
2018-09-29T01:54:00.259Z,44.20
2018-09-29T01:56:29.394Z,44.10
2018-09-29T01:58:58.374Z,44.10
2018-09-29T02:01:27.291Z,44.10
2018-09-29T02:03:56.187Z,45.10
2018-09-29T02:06:25.079Z,45.10
2018-09-29T02:08:53.955Z,44.70
2018-09-29T02:11:22.842Z,45.80
2018-09-29T02:13:51.703Z,46.00
2018-09-29T02:16:20.589Z,46.70
2018-09-29T02:18:49.471Z,46.60
2018-09-29T02:21:18.382Z,46.30
2018-09-29T02:23:47.246Z,46.60
2018-09-29T02:26:16.116Z,47.00
2018-09-29T02:28:45.121Z,49.10
2018-09-29T02:31:13.979Z,49.60
2018-09-29T02:33:42.926Z,50.90
2018-09-29T02:36:11.851Z,51.80
2018-09-29T02:38:40.830Z,52.00
2018-09-29T02:41:09.710Z,52.20
2018-09-29T02:43:38.598Z,52.20
2018-09-29T02:46:07.552Z,52.20
2018-09-29T02:48:36.483Z,52.20
2018-09-29T02:51:05.414Z,52.90
2018-09-29T02:53:34.344Z,57.50
2018-09-29T02:56:03.268Z,62.40
2018-09-29T02:58:32.391Z,64.10
2018-09-29T03:01:01.263Z,62.40
2018-09-29T03:03:30.136Z,61.80
2018-09-29T03:05:59.015Z,62.50
2018-09-29T03:08:27.900Z,64.40
2018-09-29T03:10:56.815Z,66.70
2018-09-29T03:13:25.676Z,68.20
2018-09-29T03:15:54.550Z,67.00
2018-09-29T03:18:23.423Z,68.40
2018-09-29T03:20:52.304Z,68.60
2018-09-29T03:23:21.168Z,69.30
2018-09-29T03:25:50.051Z,69.00
2018-09-29T03:28:18.935Z,69.30
2018-09-29T03:30:47.830Z,68.30
2018-09-29T03:33:16.686Z,69.30
2018-09-29T03:35:45.563Z,70.10
2018-09-29T03:38:14.439Z,69.80
2018-09-29T03:40:43.366Z,70.70
2018-09-29T03:43:12.247Z,71.90
2018-09-29T03:45:41.161Z,71.30
2018-09-29T03:48:10.048Z,70.60
2018-09-29T03:50:38.924Z,69.10
2018-09-29T03:53:07.795Z,71.60
2018-09-29T03:55:36.683Z,72.70
2018-09-29T03:58:05.819Z,70.60
2018-09-29T04:00:35.636Z,72.50
2018-09-29T04:03:04.526Z,72.00
2018-09-29T04:05:33.458Z,73.70
2018-09-29T04:08:02.367Z,73.10
2018-09-29T04:10:31.259Z,73.90
2018-09-29T04:13:00.237Z,73.90
2018-09-29T04:15:29.135Z,74.50
2018-09-29T04:17:58.330Z,74.20
2018-09-29T04:20:27.203Z,73.50
2018-09-29T04:22:56.091Z,73.00
2018-09-29T04:25:24.963Z,74.70
2018-09-29T04:27:53.854Z,73.40
2018-09-29T04:30:22.728Z,74.00
2018-09-29T04:32:51.619Z,74.50
2018-09-29T04:35:20.478Z,78.10
2018-09-29T04:37:49.863Z,77.90
2018-09-29T04:40:18.718Z,77.10
2018-09-29T04:42:47.592Z,75.00
2018-09-29T04:45:16.459Z,76.70
2018-09-29T04:47:45.332Z,77.40
2018-09-29T04:50:14.187Z,77.50
2018-09-29T04:52:43.056Z,76.60
2018-09-29T04:55:11.944Z,77.40
2018-09-29T04:57:40.827Z,77.50
2018-09-29T05:00:09.690Z,76.60
2018-09-29T05:02:38.670Z,76.10
2018-09-29T05:05:07.542Z,74.00
2018-09-29T05:07:36.441Z,74.30
2018-09-29T05:10:05.367Z,76.00
2018-09-29T05:12:34.282Z,75.70
2018-09-29T05:15:03.322Z,74.90
2018-09-29T05:17:32.222Z,74.80
2018-09-29T05:20:01.099Z,75.20
2018-09-29T05:22:30.000Z,77.50
2018-09-29T05:24:58.858Z,78.30
2018-09-29T05:27:27.742Z,80.10
2018-09-29T05:29:56.605Z,77.50
2018-09-29T05:32:25.502Z,78.90
2018-09-29T05:34:54.376Z,80.30
2018-09-29T05:37:23.270Z,79.80
2018-09-29T05:39:52.138Z,80.50
2018-09-29T05:42:21.014Z,80.00
2018-09-29T05:44:49.866Z,81.40
2018-09-29T05:47:18.763Z,82.10
2018-09-29T05:49:47.627Z,83.90
2018-09-29T05:52:16.502Z,83.60
2018-09-29T05:54:45.399Z,83.90
2018-09-29T05:57:14.331Z,81.50
2018-09-29T05:59:43.207Z,81.70
2018-09-29T06:02:12.090Z,79.00
2018-09-29T06:04:40.939Z,76.00
2018-09-29T06:07:09.883Z,77.00
2018-09-29T06:09:38.706Z,74.40
2018-09-29T06:12:07.702Z,73.80
2018-09-29T06:14:36.558Z,71.70
2018-09-29T06:17:05.514Z,69.10
2018-09-29T06:19:34.406Z,69.20
2018-09-29T06:22:03.310Z,67.80
2018-09-29T06:24:39.090Z,67.60
2018-09-29T06:27:07.976Z,66.80
2018-09-29T06:29:37.003Z,65.10
2018-09-29T06:32:06.236Z,60.00
2018-09-29T06:34:35.135Z,59.90
2018-09-29T06:37:04.083Z,60.10
2018-09-29T06:39:32.994Z,59.50
2018-09-29T06:42:02.263Z,59.40
2018-09-29T06:44:31.127Z,57.40
2018-09-29T06:46:59.995Z,56.50
2018-09-29T06:49:28.863Z,55.30
2018-09-29T06:51:57.739Z,55.40
2018-09-29T06:54:26.613Z,54.70
2018-09-29T06:56:55.506Z,54.40
2018-09-29T06:59:24.363Z,53.80
2018-09-29T07:01:53.240Z,53.50
2018-09-29T07:04:22.102Z,52.60
2018-09-29T07:06:50.966Z,51.10
2018-09-29T07:09:19.826Z,50.10
2018-09-29T07:11:48.719Z,48.80
2018-09-29T07:14:17.586Z,49.00
2018-09-29T07:16:46.492Z,48.80
2018-09-29T07:19:15.368Z,48.40
2018-09-29T07:21:44.335Z,49.40
2018-09-29T07:24:13.224Z,48.40
2018-09-29T07:26:42.090Z,46.90
2018-09-29T07:29:10.954Z,45.50
2018-09-29T07:31:39.825Z,44.80
2018-09-29T07:34:08.723Z,44.00
2018-09-29T07:36:37.598Z,42.90
2018-09-29T07:39:08.567Z,42.50
2018-09-29T07:41:37.479Z,41.30
2018-09-29T07:44:06.678Z,41.60
2018-09-29T07:46:35.555Z,39.70
2018-09-29T07:49:04.517Z,39.00
2018-09-29T07:51:33.445Z,38.50
2018-09-29T07:54:02.354Z,38.90
2018-09-29T07:56:31.238Z,39.60
2018-09-29T07:59:00.186Z,40.70
2018-09-29T08:01:29.058Z,38.90
2018-09-29T08:03:57.946Z,36.10
2018-09-29T08:06:26.868Z,34.20
2018-09-29T08:08:55.956Z,35.20
2018-09-29T08:11:24.838Z,33.70
2018-09-29T08:13:53.710Z,33.70
2018-09-29T08:16:22.585Z,31.70
2018-09-29T08:18:51.472Z,31.50
2018-09-29T08:21:20.399Z,30.10
2018-09-29T08:23:49.663Z,29.10
2018-09-29T08:26:18.651Z,28.50
2018-09-29T08:28:47.642Z,28.60
2018-09-29T08:31:16.510Z,29.30
2018-09-29T08:33:45.547Z,28.20
2018-09-29T08:36:14.420Z,28.80
2018-09-29T08:38:43.294Z,27.80
2018-09-29T08:41:12.181Z,26.40
2018-09-29T08:43:41.067Z,26.50
2018-09-29T08:46:09.939Z,27.80
2018-09-29T08:48:38.826Z,26.80
2018-09-29T08:51:07.723Z,24.60
2018-09-29T08:53:36.606Z,25.90
2018-09-29T08:56:05.550Z,23.90
2018-09-29T08:58:34.439Z,23.20
2018-09-29T09:01:03.347Z,24.40
2018-09-29T09:03:32.267Z,24.20
2018-09-29T09:06:01.140Z,23.10
2018-09-29T09:08:30.030Z,22.30
2018-09-29T09:10:58.910Z,23.40
2018-09-29T09:13:27.787Z,23.10
2018-09-29T09:15:56.816Z,23.30
2018-09-29T09:18:25.703Z,23.00
2018-09-29T09:20:54.570Z,22.60
2018-09-29T09:23:23.467Z,23.20
2018-09-29T09:25:52.348Z,23.10
2018-09-29T09:28:21.231Z,23.60
2018-09-29T09:30:50.251Z,22.10
2018-09-29T09:33:19.159Z,21.10
2018-09-29T09:35:48.103Z,20.50
2018-09-29T09:38:17.079Z,20.50
2018-09-29T09:40:45.971Z,20.10
2018-09-29T09:43:14.850Z,20.70
2018-09-29T09:45:43.761Z,18.80
2018-09-29T09:48:12.838Z,19.00
2018-09-29T09:50:41.739Z,18.40
2018-09-29T09:53:10.622Z,19.40
2018-09-29T09:55:39.593Z,19.30
2018-09-29T09:58:08.480Z,19.60
2018-09-29T10:00:42.691Z,17.80
2018-09-29T10:03:17.090Z,19.00
2018-09-29T10:05:45.958Z,18.50
2018-09-29T10:08:14.849Z,19.80
2018-09-29T10:10:43.718Z,18.80
2018-09-29T10:13:12.602Z,18.80
2018-09-29T10:15:41.474Z,17.60
2018-09-29T10:18:10.372Z,17.40
2018-09-29T10:20:39.276Z,17.00
2018-09-29T10:23:08.210Z,17.90
2018-09-29T10:25:37.203Z,15.00
2018-09-29T10:28:06.145Z,15.30
2018-09-29T10:30:35.107Z,15.10
2018-09-29T10:33:04.059Z,13.80
2018-09-29T10:35:32.980Z,13.60
2018-09-29T10:38:01.896Z,13.90
2018-09-29T10:40:30.811Z,13.90
2018-09-29T10:42:59.715Z,14.60
2018-09-29T10:45:29.094Z,13.10
2018-09-29T10:47:57.994Z,13.50
2018-09-29T10:50:26.894Z,12.90
2018-09-29T10:52:55.795Z,13.60
2018-09-29T10:55:24.682Z,12.90
2018-09-29T10:57:53.554Z,13.00
2018-09-29T11:00:22.467Z,12.50
2018-09-29T11:02:51.358Z,12.40
2018-09-29T11:05:20.238Z,12.80
2018-09-29T11:07:49.178Z,13.10
2018-09-29T11:10:18.069Z,13.30
2018-09-29T11:12:46.947Z,13.50
2018-09-29T11:15:15.840Z,12.80
2018-09-29T11:17:44.810Z,13.60
2018-09-29T11:20:13.698Z,11.50
2018-09-29T11:22:42.579Z,12.80
2018-09-29T11:25:11.471Z,13.00
2018-09-29T11:27:40.365Z,11.80
2018-09-29T11:30:09.278Z,11.80
2018-09-29T11:32:44.702Z,12.10
2018-09-29T11:35:13.686Z,11.10
2018-09-29T11:37:42.562Z,11.70
2018-09-29T11:40:11.499Z,11.30
2018-09-29T11:42:40.479Z,10.80
2018-09-29T11:45:09.398Z,12.10
2018-09-29T11:47:38.291Z,12.00
2018-09-29T11:50:07.525Z,11.60
2018-09-29T11:52:36.447Z,11.00
2018-09-29T11:55:05.664Z,10.00
2018-09-29T11:57:34.582Z,10.60
2018-09-29T12:00:03.578Z,9.90
2018-09-29T12:02:32.498Z,10.10
2018-09-29T12:05:01.443Z,10.60
2018-09-29T12:07:30.375Z,10.80
2018-09-29T12:09:59.240Z,10.80
2018-09-29T12:12:28.155Z,11.10
2018-09-29T12:14:57.058Z,10.60
2018-09-29T12:17:25.975Z,11.00
2018-09-29T12:19:54.878Z,11.00
2018-09-29T12:22:23.846Z,9.50
2018-09-29T12:24:53.070Z,7.30
2018-09-29T12:27:24.919Z,7.40
2018-09-29T12:29:51.021Z,8.30
2018-09-29T12:32:20.100Z,9.10
2018-09-29T12:34:49.022Z,8.40
2018-09-29T12:37:18.078Z,7.90
2018-09-29T12:39:46.890Z,9.00
2018-09-29T12:43:19.181Z,8.80
2018-09-29T12:45:48.106Z,8.40
2018-09-29T12:48:16.982Z,9.20
2018-09-29T12:50:45.877Z,9.20
2018-09-29T12:53:14.751Z,8.30
2018-09-29T12:55:43.636Z,9.70
2018-09-29T12:58:12.527Z,8.20
2018-09-29T13:00:41.419Z,7.10
2018-09-29T13:03:10.339Z,8.70
2018-09-29T13:05:39.275Z,6.90
2018-09-29T13:08:08.167Z,8.70
2018-09-29T13:10:37.081Z,7.60
2018-09-29T13:13:06.294Z,7.80
2018-09-29T13:15:35.218Z,8.00
2018-09-29T13:18:04.118Z,7.90
2018-09-29T13:20:33.026Z,9.00
2018-09-29T13:23:01.958Z,7.30
2018-09-29T13:25:30.972Z,8.20
2018-09-29T13:27:59.858Z,8.10
2018-09-29T13:30:28.856Z,7.90
2018-09-29T13:32:57.758Z,8.20
2018-09-29T13:35:26.646Z,7.50
2018-09-29T13:37:55.543Z,7.40
2018-09-29T13:40:24.514Z,7.10
2018-09-29T13:42:53.406Z,6.80
2018-09-29T13:45:22.302Z,7.20
2018-09-29T13:47:51.186Z,7.60
2018-09-29T13:50:20.070Z,7.20
2018-09-29T13:52:48.963Z,6.70
2018-09-29T13:55:17.902Z,7.20
2018-09-29T13:57:46.822Z,7.90
2018-09-29T14:00:22.459Z,7.20
2018-09-29T14:02:51.331Z,7.60
2018-09-29T14:05:20.228Z,7.30
2018-09-29T14:07:49.124Z,7.90
2018-09-29T14:10:18.133Z,8.20
2018-09-29T14:12:47.003Z,8.20
2018-09-29T14:15:15.891Z,7.10
2018-09-29T14:17:44.775Z,6.00
2018-09-29T14:20:13.671Z,7.20
2018-09-29T14:22:42.546Z,6.90
2018-09-29T14:25:11.474Z,7.60
2018-09-29T14:27:40.358Z,5.60
2018-09-29T14:30:09.390Z,5.50
2018-09-29T14:32:38.242Z,6.50
2018-09-29T14:35:07.210Z,5.30
2018-09-29T14:37:36.085Z,4.50
2018-09-29T14:40:05.283Z,6.50
2018-09-29T14:42:34.203Z,6.00
2018-09-29T14:45:03.234Z,5.90
2018-09-29T14:47:32.258Z,6.80
2018-09-29T14:50:01.351Z,6.50
2018-09-29T14:52:30.403Z,5.70
2018-09-29T14:54:59.433Z,5.40
2018-09-29T14:57:28.318Z,5.00
2018-09-29T14:59:57.439Z,6.10
2018-09-29T15:02:26.310Z,5.30
2018-09-29T15:04:55.263Z,5.40
2018-09-29T15:07:24.135Z,5.10
2018-09-29T15:09:53.255Z,5.10
2018-09-29T15:12:22.456Z,5.70
2018-09-29T15:14:51.343Z,5.30
2018-09-29T15:17:20.254Z,5.80
2018-09-29T15:19:49.137Z,5.00
2018-09-29T15:22:18.094Z,5.60
2018-09-29T15:24:46.958Z,5.30
2018-09-29T15:27:15.890Z,5.80
2018-09-29T15:29:44.779Z,6.10
2018-09-29T15:32:13.670Z,7.00
2018-09-29T15:34:42.550Z,5.30
2018-09-29T15:37:11.442Z,6.20
2018-09-29T15:39:40.316Z,6.30
2018-09-29T15:42:09.210Z,6.60
2018-09-29T15:44:38.098Z,6.80
2018-09-29T15:47:07.089Z,6.20
2018-09-29T15:49:35.979Z,6.40
2018-09-29T15:52:05.049Z,6.50
2018-09-29T15:54:33.959Z,7.40
2018-09-29T15:57:02.858Z,7.70
2018-09-29T15:59:31.833Z,8.30
2018-09-29T16:02:00.746Z,9.50
2018-09-29T16:04:29.628Z,8.90
2018-09-29T16:06:58.547Z,9.70
2018-09-29T16:09:27.410Z,9.60
2018-09-29T16:11:58.377Z,10.40
2018-09-29T16:14:27.606Z,10.30
2018-09-29T16:16:56.506Z,11.20
2018-09-29T16:19:25.402Z,10.90
2018-09-29T16:21:54.299Z,10.70
2018-09-29T16:24:23.175Z,10.80
2018-09-29T16:26:52.056Z,11.40
2018-09-29T16:29:20.926Z,12.00
2018-09-29T16:31:49.869Z,11.80
2018-09-29T16:34:18.707Z,12.00
2018-09-29T16:36:47.599Z,12.80
2018-09-29T16:39:16.474Z,12.60
2018-09-29T16:41:45.376Z,12.60
2018-09-29T16:44:14.238Z,13.20
2018-09-29T16:46:43.135Z,13.70
2018-09-29T16:49:12.166Z,14.30
2018-09-29T16:51:41.146Z,14.50
2018-09-29T16:54:10.178Z,14.40
2018-09-29T16:56:39.092Z,14.90
2018-09-29T16:59:07.994Z,14.80
2018-09-29T17:01:37.032Z,15.50
2018-09-29T17:04:06.109Z,15.40
2018-09-29T17:06:35.171Z,15.90
2018-09-29T17:09:05.891Z,15.70
2018-09-29T17:11:34.782Z,15.70
2018-09-29T17:14:03.691Z,15.70
2018-09-29T17:16:32.626Z,15.90
2018-09-29T17:19:01.514Z,16.50
2018-09-29T17:21:30.403Z,16.50
2018-09-29T17:23:59.346Z,16.70
2018-09-29T17:26:28.286Z,17.20
2018-09-29T17:28:57.154Z,18.10
2018-09-29T17:31:26.203Z,18.50
2018-09-29T17:33:55.088Z,18.90
2018-09-29T17:36:23.971Z,18.60
2018-09-29T17:38:52.850Z,18.80
2018-09-29T17:41:21.758Z,18.80
2018-09-29T17:43:50.622Z,19.20
2018-09-29T17:46:19.506Z,20.80
2018-09-29T17:48:48.378Z,21.60
2018-09-29T17:51:17.277Z,20.60
2018-09-29T17:53:46.140Z,20.50
2018-09-29T17:56:15.035Z,21.10
2018-09-29T17:58:43.931Z,22.10
2018-09-29T18:01:12.911Z,22.00
2018-09-29T18:03:41.863Z,21.90
2018-09-29T18:06:10.718Z,22.20
2018-09-29T18:08:39.717Z,23.30
2018-09-29T18:11:08.555Z,23.50
2018-09-29T18:13:37.551Z,23.50
2018-09-29T18:16:06.779Z,22.70
2018-09-29T18:18:35.691Z,22.90
2018-09-29T18:21:06.015Z,24.00
2018-09-29T18:23:35.475Z,24.60
2018-09-29T18:26:04.591Z,25.20
2018-09-29T18:28:33.554Z,25.10
2018-09-29T18:31:02.490Z,25.00
2018-09-29T18:33:31.406Z,25.00
2018-09-29T18:36:00.397Z,24.90
2018-09-29T18:38:29.291Z,24.90
2018-09-29T18:40:58.205Z,25.10
2018-09-29T18:43:27.055Z,25.00
2018-09-29T18:45:55.943Z,26.00
2018-09-29T18:48:24.830Z,25.80
2018-09-29T18:50:53.703Z,26.30
2018-09-29T18:53:22.606Z,27.00
2018-09-29T18:55:51.479Z,27.80
2018-09-29T18:58:20.366Z,27.60
2018-09-29T19:00:49.354Z,27.50
2018-09-29T19:03:18.307Z,27.50
2018-09-29T19:05:47.170Z,27.90
2018-09-29T19:08:16.054Z,28.40
2018-09-29T19:10:44.934Z,27.90
2018-09-29T19:13:13.816Z,29.30
2018-09-29T19:15:42.694Z,30.20
2018-09-29T19:18:11.761Z,29.80
2018-09-29T19:20:40.935Z,30.10
2018-09-29T19:23:09.911Z,31.00
2018-09-29T19:25:38.799Z,31.50
2018-09-29T19:28:07.882Z,32.30
2018-09-29T19:30:36.787Z,32.40
2018-09-29T19:33:05.711Z,31.90
2018-09-29T19:35:34.618Z,32.20
2018-09-29T19:38:03.903Z,32.50
2018-09-29T19:40:32.798Z,32.50
2018-09-29T19:43:01.840Z,32.50
2018-09-29T19:45:30.815Z,32.10
2018-09-29T19:47:59.778Z,33.20
2018-09-29T19:50:28.641Z,34.10
2018-09-29T19:52:57.638Z,33.70
2018-09-29T19:55:26.472Z,33.50
2018-09-29T19:57:55.349Z,33.40
2018-09-29T20:00:24.214Z,33.40
2018-09-29T20:02:53.090Z,35.40
2018-09-29T20:05:22.130Z,35.30
2018-09-29T20:07:51.383Z,35.60
2018-09-29T20:10:20.315Z,36.00
2018-09-29T20:12:49.154Z,34.80
2018-09-29T20:15:18.014Z,34.40
2018-09-29T20:17:46.899Z,34.40
2018-09-29T20:20:15.758Z,33.80
2018-09-29T20:22:44.631Z,34.70
2018-09-29T20:25:13.526Z,36.00
2018-09-29T20:27:42.391Z,36.50
2018-09-29T20:30:11.278Z,35.10
2018-09-29T20:32:40.222Z,35.90
2018-09-29T20:35:09.122Z,35.70
2018-09-29T20:37:37.999Z,35.90
2018-09-29T20:40:07.094Z,37.10
2018-09-29T20:42:35.987Z,35.90
2018-09-29T20:45:04.943Z,35.90
2018-09-29T20:47:33.909Z,35.80
2018-09-29T20:50:02.898Z,35.90
2018-09-29T20:52:31.794Z,36.00
2018-09-29T20:55:00.662Z,36.40
2018-09-29T20:57:29.564Z,36.60
2018-09-29T20:59:58.419Z,36.40
2018-09-29T21:02:27.323Z,35.80
2018-09-29T21:04:56.191Z,36.40
2018-09-29T21:07:25.087Z,37.30
2018-09-29T21:09:53.946Z,37.50
2018-09-29T21:12:23.159Z,38.50
2018-09-29T21:14:52.019Z,38.00
2018-09-29T21:17:20.912Z,37.80
2018-09-29T21:19:49.855Z,38.10
2018-09-29T21:22:18.773Z,38.90
2018-09-29T21:24:47.650Z,39.20
2018-09-29T21:27:16.539Z,39.90
2018-09-29T21:29:45.415Z,40.10
2018-09-29T21:32:14.302Z,39.60
2018-09-29T21:34:43.191Z,40.50
2018-09-29T21:37:12.071Z,41.30
2018-09-29T21:39:40.963Z,41.50
2018-09-29T21:42:09.820Z,41.40
2018-09-29T21:44:38.720Z,41.90
2018-09-29T21:47:07.641Z,43.80
2018-09-29T21:49:36.530Z,43.40
2018-09-29T21:52:05.479Z,43.80
2018-09-29T21:54:34.379Z,43.80
2018-09-29T21:57:03.366Z,44.60
2018-09-29T21:59:32.266Z,46.00
2018-09-29T22:02:01.136Z,46.20
2018-09-29T22:04:30.055Z,46.30
2018-09-29T22:06:58.878Z,46.80
2018-09-29T22:09:27.754Z,46.50
2018-09-29T22:11:56.630Z,47.10
2018-09-29T22:14:25.511Z,47.60
2018-09-29T22:16:54.378Z,48.90
2018-09-29T22:19:23.263Z,48.40
2018-09-29T22:21:52.143Z,47.90
2018-09-29T22:24:21.808Z,47.60
2018-09-29T22:26:50.678Z,47.60
2018-09-29T22:29:19.567Z,47.80
2018-09-29T22:31:48.484Z,47.40
2018-09-29T22:34:17.355Z,47.60
2018-09-29T22:36:46.242Z,50.10
2018-09-29T22:39:15.125Z,50.00
2018-09-29T22:41:43.990Z,50.90
2018-09-29T22:44:12.890Z,51.60
2018-09-29T22:46:43.790Z,50.90
2018-09-29T22:49:12.663Z,51.90
2018-09-29T22:51:41.531Z,51.80
2018-09-29T22:54:10.432Z,51.80
2018-09-29T22:56:39.304Z,51.80
2018-09-29T22:59:08.211Z,51.90
2018-09-29T23:01:37.094Z,51.80
2018-09-29T23:04:05.995Z,52.40
2018-09-29T23:06:34.855Z,52.60
2018-09-29T23:09:04.715Z,52.40
2018-09-29T23:11:33.615Z,52.50
2018-09-29T23:14:02.539Z,52.20
2018-09-29T23:16:31.419Z,54.70
2018-09-29T23:19:00.368Z,56.10
2018-09-29T23:21:29.166Z,57.90
2018-09-29T23:23:58.047Z,56.70
2018-09-29T23:26:26.947Z,57.20
2018-09-29T23:28:55.862Z,57.70
2018-09-29T23:31:24.751Z,58.60
2018-09-29T23:33:53.642Z,57.10
2018-09-29T23:36:22.510Z,57.40
2018-09-29T23:38:51.415Z,57.00
2018-09-29T23:41:20.280Z,56.20
2018-09-29T23:43:49.210Z,57.20
2018-09-29T23:46:18.100Z,57.50
2018-09-29T23:48:46.994Z,57.60
2018-09-29T23:51:15.871Z,57.70
2018-09-29T23:53:44.738Z,59.60
2018-09-29T23:56:13.659Z,60.70
2018-09-29T23:58:42.531Z,60.90
